createdAt,value
2019-03-21T00:00:05.681Z,71.69
2019-03-21T00:01:43.708Z,71.53
2019-03-21T00:03:18.863Z,71.74
2019-03-21T00:04:56.494Z,71.89
2019-03-21T00:06:31.741Z,72.28
2019-03-21T00:08:08.725Z,72.05
2019-03-21T00:10:37.056Z,72.07
2019-03-21T00:12:12.262Z,72.05
2019-03-21T00:13:47.449Z,72.27
2019-03-21T00:15:26.782Z,72.34
2019-03-21T00:17:02.302Z,72.44
2019-03-21T00:18:37.565Z,72.27
2019-03-21T00:20:16.836Z,72.09
2019-03-21T00:21:52.022Z,72.13
2019-03-21T00:23:27.241Z,72.21
2019-03-21T00:25:02.453Z,72.49
2019-03-21T00:26:38.615Z,72.63
2019-03-21T00:28:13.806Z,72.55
2019-03-21T00:29:49.016Z,72.83
2019-03-21T00:31:24.199Z,72.42
2019-03-21T00:32:59.387Z,72.31
2019-03-21T00:34:34.629Z,72.46
2019-03-21T00:36:09.802Z,72.78
2019-03-21T00:37:45.025Z,72.73
2019-03-21T00:39:20.209Z,72.72
2019-03-21T00:40:55.430Z,72.92
2019-03-21T00:42:30.626Z,73.25
2019-03-21T00:44:06.009Z,73.08
2019-03-21T00:45:41.203Z,72.91
2019-03-21T00:47:16.384Z,72.98
2019-03-21T00:48:51.575Z,73.20
2019-03-21T00:50:26.952Z,73.05
2019-03-21T00:52:03.262Z,73.43
2019-03-21T00:53:38.459Z,73.50
2019-03-21T00:55:13.774Z,72.79
2019-03-21T00:56:48.972Z,73.36
2019-03-21T00:58:24.173Z,73.73
2019-03-21T00:59:59.365Z,73.18
2019-03-21T01:01:34.603Z,73.32
2019-03-21T01:03:10.922Z,73.56
2019-03-21T01:04:46.128Z,74.01
2019-03-21T01:06:21.381Z,73.88
2019-03-21T01:07:56.566Z,73.91
2019-03-21T01:09:31.773Z,73.98
2019-03-21T01:11:07.072Z,73.28
2019-03-21T01:12:44.711Z,73.50
2019-03-21T01:14:29.428Z,73.76
2019-03-21T01:15:56.879Z,73.52
2019-03-21T01:17:33.018Z,73.42
2019-03-21T01:19:08.282Z,73.15
2019-03-21T01:20:43.491Z,73.74
2019-03-21T01:22:19.004Z,73.81
2019-03-21T01:23:54.201Z,73.73
2019-03-21T01:25:32.905Z,73.49
2019-03-21T01:27:08.212Z,73.91
2019-03-21T01:28:43.387Z,73.98
2019-03-21T01:30:19.746Z,73.97
2019-03-21T01:31:54.963Z,73.95
2019-03-21T01:33:30.149Z,74.12
2019-03-21T01:35:05.625Z,74.12
2019-03-21T01:36:40.831Z,74.23
2019-03-21T01:38:17.326Z,74.23
2019-03-21T01:39:52.508Z,73.52
2019-03-21T01:41:27.755Z,74.00
2019-03-21T01:43:02.941Z,74.21
2019-03-21T01:44:41.260Z,74.30
2019-03-21T01:46:15.676Z,74.25
2019-03-21T01:47:51.623Z,74.70
2019-03-21T01:49:26.805Z,74.90
2019-03-21T01:51:02.050Z,74.37
2019-03-21T01:52:37.241Z,74.37
2019-03-21T01:54:12.434Z,74.36
2019-03-21T01:55:47.630Z,74.30
2019-03-21T01:57:22.897Z,74.41
2019-03-21T01:58:58.431Z,73.98
2019-03-21T02:00:35.645Z,74.21
2019-03-21T02:02:11.128Z,74.00
2019-03-21T02:03:46.345Z,74.21
2019-03-21T02:05:21.649Z,74.98
2019-03-21T02:06:56.817Z,74.81
2019-03-21T02:08:32.000Z,74.56
2019-03-21T02:10:09.895Z,74.31
2019-03-21T02:11:45.128Z,73.85
2019-03-21T02:13:20.304Z,74.34
2019-03-21T02:14:55.486Z,75.01
2019-03-21T02:16:30.669Z,74.62
2019-03-21T02:18:06.273Z,74.25
2019-03-21T02:19:41.436Z,74.00
2019-03-21T02:21:16.651Z,74.33
2019-03-21T02:22:51.827Z,74.67
2019-03-21T02:24:27.005Z,74.50
2019-03-21T02:26:02.212Z,74.32
2019-03-21T02:27:37.430Z,74.54
2019-03-21T02:29:12.627Z,74.27
2019-03-21T02:30:47.961Z,73.92
2019-03-21T02:32:23.172Z,73.95
2019-03-21T02:33:58.520Z,73.37
2019-03-21T02:35:33.725Z,73.04
2019-03-21T02:37:08.943Z,73.67
2019-03-21T02:38:44.127Z,73.82
2019-03-21T02:40:21.340Z,73.67
2019-03-21T02:41:56.572Z,73.60
2019-03-21T02:43:31.781Z,73.83
2019-03-21T02:45:09.458Z,73.85
2019-03-21T02:46:44.907Z,74.00
2019-03-21T02:48:20.265Z,74.11
2019-03-21T02:49:55.465Z,74.17
2019-03-21T02:51:30.719Z,74.41
2019-03-21T02:53:05.984Z,74.45
2019-03-21T02:54:41.210Z,74.48
2019-03-21T02:56:17.175Z,74.23
2019-03-21T02:57:52.394Z,74.49
2019-03-21T02:59:27.566Z,74.89
2019-03-21T03:01:02.858Z,74.59
2019-03-21T03:02:38.036Z,74.43
2019-03-21T03:04:13.229Z,74.70
2019-03-21T03:05:48.427Z,74.65
2019-03-21T03:07:23.631Z,74.57
2019-03-21T03:08:58.820Z,74.60
2019-03-21T03:10:36.712Z,74.87
2019-03-21T03:12:11.923Z,74.66
2019-03-21T03:13:48.216Z,74.55
2019-03-21T03:15:24.367Z,74.87
2019-03-21T03:16:59.640Z,74.99
2019-03-21T03:18:34.911Z,75.48
2019-03-21T03:20:12.169Z,75.06
2019-03-21T03:21:47.347Z,74.48
2019-03-21T03:23:22.613Z,74.51
2019-03-21T03:24:57.819Z,74.95
2019-03-21T03:26:33.014Z,74.84
2019-03-21T03:28:14.339Z,74.85
2019-03-21T03:29:49.555Z,74.96
2019-03-21T03:31:24.788Z,75.59
2019-03-21T03:33:00.017Z,75.26
2019-03-21T03:34:35.219Z,75.09
2019-03-21T03:36:10.578Z,75.07
2019-03-21T03:37:45.981Z,75.07
2019-03-21T03:39:21.178Z,74.89
2019-03-21T03:40:58.442Z,74.43
2019-03-21T03:42:33.632Z,74.39
2019-03-21T03:44:08.806Z,74.40
2019-03-21T03:45:44.097Z,74.47
2019-03-21T03:47:19.287Z,73.98
2019-03-21T03:48:54.464Z,74.08
2019-03-21T03:50:30.717Z,73.88
2019-03-21T03:52:05.930Z,74.29
2019-03-21T03:53:42.596Z,74.13
2019-03-21T03:55:18.706Z,73.56
2019-03-21T03:56:53.846Z,73.66
2019-03-21T03:58:29.179Z,73.91
2019-03-21T04:00:05.214Z,74.31
2019-03-21T04:01:40.435Z,74.38
2019-03-21T04:03:15.646Z,73.99
2019-03-21T04:04:50.861Z,73.83
2019-03-21T04:06:26.112Z,73.83
2019-03-21T04:08:01.298Z,73.87
2019-03-21T04:09:36.571Z,73.76
2019-03-21T04:11:11.916Z,73.61
2019-03-21T04:12:49.637Z,73.74
2019-03-21T04:14:24.846Z,74.08
2019-03-21T04:16:00.070Z,73.87
2019-03-21T04:17:35.240Z,74.18
2019-03-21T04:19:10.411Z,74.11
2019-03-21T04:20:46.485Z,74.13
2019-03-21T04:22:21.698Z,73.92
2019-03-21T04:23:59.565Z,73.71
2019-03-21T04:25:48.961Z,73.42
2019-03-21T04:27:24.240Z,73.61
2019-03-21T04:28:59.435Z,74.94
2019-03-21T04:30:34.678Z,74.90
2019-03-21T04:32:10.831Z,74.63
2019-03-21T04:33:46.181Z,73.77
2019-03-21T04:35:21.361Z,74.27
2019-03-21T04:36:56.548Z,74.43
2019-03-21T04:38:31.745Z,73.99
2019-03-21T04:40:07.979Z,74.20
2019-03-21T04:41:43.965Z,74.38
2019-03-21T04:43:19.152Z,74.60
2019-03-21T04:44:55.436Z,74.99
2019-03-21T04:46:30.629Z,74.38
2019-03-21T04:48:05.927Z,74.11
2019-03-21T04:49:41.182Z,74.52
2019-03-21T04:51:16.496Z,74.48
2019-03-21T04:52:51.659Z,74.63
2019-03-21T04:54:27.816Z,74.82
2019-03-21T04:56:02.988Z,74.74
2019-03-21T04:57:38.178Z,74.92
2019-03-21T04:59:13.365Z,74.44
2019-03-21T05:00:48.684Z,74.36
2019-03-21T05:02:23.933Z,74.36
2019-03-21T05:03:59.125Z,74.60
2019-03-21T05:05:34.373Z,74.00
2019-03-21T05:07:09.586Z,74.06
2019-03-21T05:08:44.811Z,73.92
2019-03-21T05:10:19.988Z,74.14
2019-03-21T05:11:55.174Z,74.30
2019-03-21T05:13:30.384Z,74.49
2019-03-21T05:15:07.319Z,74.42
2019-03-21T05:16:42.508Z,74.20
2019-03-21T05:18:21.473Z,74.18
2019-03-21T05:19:56.683Z,74.20
2019-03-21T05:21:32.840Z,74.40
2019-03-21T05:23:08.020Z,74.48
2019-03-21T05:24:43.202Z,74.35
2019-03-21T05:26:18.454Z,74.41
2019-03-21T05:27:53.630Z,74.54
2019-03-21T05:29:30.250Z,74.12
2019-03-21T05:31:08.839Z,74.48
2019-03-21T05:32:44.027Z,74.64
2019-03-21T05:34:19.277Z,74.93
2019-03-21T05:35:54.488Z,74.38
2019-03-21T05:37:29.699Z,74.02
2019-03-21T05:39:07.658Z,74.23
2019-03-21T05:40:42.854Z,74.11
2019-03-21T05:42:20.699Z,74.62
2019-03-21T05:44:00.764Z,74.17
2019-03-21T05:45:35.902Z,73.96
2019-03-21T05:47:11.108Z,74.29
2019-03-21T05:48:46.282Z,74.29
2019-03-21T05:50:21.508Z,74.10
2019-03-21T05:51:56.730Z,74.35
2019-03-21T05:53:31.938Z,74.38
2019-03-21T05:55:08.172Z,74.31
2019-03-21T05:56:43.374Z,74.36
2019-03-21T05:58:18.542Z,74.31
2019-03-21T05:59:53.809Z,74.84
2019-03-21T06:01:28.991Z,74.86
2019-03-21T06:03:04.670Z,74.35
2019-03-21T06:04:39.888Z,74.50
2019-03-21T06:06:18.380Z,74.54
2019-03-21T06:07:57.720Z,74.64
2019-03-21T06:09:32.900Z,74.40
2019-03-21T06:11:08.173Z,74.19
2019-03-21T06:12:46.856Z,73.92
2019-03-21T06:14:22.044Z,74.32
2019-03-21T06:16:06.677Z,74.39
2019-03-21T06:17:41.992Z,73.86
2019-03-21T06:19:57.123Z,73.88
2019-03-21T06:21:36.775Z,74.14
2019-03-21T06:23:52.372Z,73.56
2019-03-21T06:25:54.755Z,73.24
2019-03-21T06:27:30.259Z,72.96
2019-03-21T06:29:05.483Z,72.92
2019-03-21T06:30:40.714Z,72.94
2019-03-21T06:32:15.925Z,73.08
2019-03-21T06:33:51.103Z,72.66
2019-03-21T06:35:26.337Z,73.62
2019-03-21T06:37:01.844Z,73.62
2019-03-21T06:38:37.057Z,73.60
2019-03-21T06:40:12.262Z,72.77
2019-03-21T06:41:47.443Z,73.05
2019-03-21T06:43:22.626Z,72.88
2019-03-21T06:44:58.133Z,72.75
2019-03-21T06:46:33.311Z,72.52
2019-03-21T06:48:08.497Z,72.46
2019-03-21T06:49:46.309Z,71.76
2019-03-21T06:51:20.597Z,71.77
2019-03-21T06:52:55.847Z,71.51
2019-03-21T06:54:31.033Z,72.15
2019-03-21T06:56:06.316Z,71.25
2019-03-21T06:57:41.564Z,70.93
2019-03-21T06:59:16.777Z,70.77
2019-03-21T07:00:51.968Z,71.89
2019-03-21T07:02:27.147Z,71.23
2019-03-21T07:04:06.915Z,71.05
2019-03-21T07:05:39.249Z,71.04
2019-03-21T07:07:14.518Z,71.15
2019-03-21T07:08:49.696Z,71.56
2019-03-21T07:10:24.877Z,70.66
2019-03-21T07:12:00.109Z,70.83
2019-03-21T07:13:35.327Z,70.58
2019-03-21T07:15:11.075Z,70.97
2019-03-21T07:16:46.291Z,70.88
2019-03-21T07:18:21.532Z,70.78
2019-03-21T07:19:56.754Z,71.16
2019-03-21T07:21:31.951Z,71.12
2019-03-21T07:23:07.156Z,70.64
2019-03-21T07:24:42.333Z,71.48
2019-03-21T07:26:17.534Z,70.54
2019-03-21T07:27:52.766Z,70.26
2019-03-21T07:29:28.045Z,70.14
2019-03-21T07:31:04.396Z,70.95
2019-03-21T07:32:39.591Z,70.21
2019-03-21T07:34:14.809Z,69.79
2019-03-21T07:35:49.992Z,69.99
2019-03-21T07:37:25.181Z,69.66
2019-03-21T07:39:00.364Z,69.48
2019-03-21T07:40:35.558Z,70.03
2019-03-21T07:42:10.875Z,70.84
2019-03-21T07:43:46.043Z,70.21
2019-03-21T07:45:21.337Z,70.50
2019-03-21T07:46:56.606Z,70.82
2019-03-21T07:48:31.784Z,71.00
2019-03-21T07:50:07.998Z,70.22
2019-03-21T07:51:45.160Z,69.23
2019-03-21T07:53:22.134Z,69.08
2019-03-21T07:54:57.509Z,69.38
2019-03-21T07:56:32.683Z,70.54
2019-03-21T07:58:07.869Z,70.33
2019-03-21T07:59:43.093Z,70.21
2019-03-21T08:01:18.266Z,69.09
2019-03-21T08:02:53.542Z,70.19
2019-03-21T08:04:28.727Z,70.05
2019-03-21T08:06:03.991Z,69.17
2019-03-21T08:07:39.184Z,68.86
2019-03-21T08:09:14.385Z,68.15
2019-03-21T08:10:49.574Z,68.15
2019-03-21T08:12:24.812Z,68.94
2019-03-21T08:14:00.000Z,69.02
2019-03-21T08:15:37.920Z,68.52
2019-03-21T08:17:13.000Z,67.40
2019-03-21T08:18:48.214Z,69.09
2019-03-21T08:20:23.499Z,68.06
2019-03-21T08:21:58.700Z,68.96
2019-03-21T08:23:33.911Z,67.64
2019-03-21T08:25:09.446Z,67.39
2019-03-21T08:26:44.633Z,67.39
2019-03-21T08:28:19.868Z,68.20
2019-03-21T08:29:55.022Z,66.89
2019-03-21T08:31:30.235Z,66.81
2019-03-21T08:33:06.600Z,65.81
2019-03-21T08:34:41.793Z,65.81
2019-03-21T08:36:17.446Z,66.39
2019-03-21T08:37:52.698Z,66.15
2019-03-21T08:39:27.893Z,66.74
2019-03-21T08:41:03.141Z,66.18
2019-03-21T08:42:38.338Z,66.04
2019-03-21T08:44:13.533Z,65.40
2019-03-21T08:45:48.770Z,65.08
2019-03-21T08:47:23.944Z,65.13
2019-03-21T08:48:59.150Z,64.80
2019-03-21T08:50:34.476Z,65.40
2019-03-21T08:52:09.709Z,65.07
2019-03-21T08:53:44.915Z,63.60
2019-03-21T08:55:20.179Z,63.60
2019-03-21T08:56:55.450Z,64.69
2019-03-21T08:58:30.647Z,64.76
2019-03-21T09:00:07.201Z,64.90
2019-03-21T09:01:42.406Z,64.01
2019-03-21T09:03:17.592Z,64.04
2019-03-21T09:04:52.982Z,63.97
2019-03-21T09:06:28.279Z,63.97
2019-03-21T09:08:03.526Z,64.30
2019-03-21T09:09:38.730Z,64.03
2019-03-21T09:11:13.934Z,62.84
2019-03-21T09:12:49.134Z,62.84
2019-03-21T09:14:24.505Z,63.92
2019-03-21T09:15:59.747Z,63.92
2019-03-21T09:17:34.955Z,63.80
2019-03-21T09:19:10.318Z,63.13
2019-03-21T09:20:45.477Z,62.69
2019-03-21T09:22:20.721Z,63.07
2019-03-21T09:23:55.934Z,63.07
2019-03-21T09:25:31.157Z,62.41
2019-03-21T09:27:06.347Z,62.42
2019-03-21T09:28:41.535Z,64.42
2019-03-21T09:30:16.875Z,63.54
2019-03-21T09:31:52.125Z,61.07
2019-03-21T09:33:27.316Z,60.21
2019-03-21T09:35:02.549Z,60.27
2019-03-21T09:36:37.827Z,61.08
2019-03-21T09:38:13.056Z,60.01
2019-03-21T09:39:48.263Z,60.01
2019-03-21T09:41:23.470Z,58.58
2019-03-21T09:42:58.962Z,58.58
2019-03-21T09:44:34.162Z,58.89
2019-03-21T09:46:09.375Z,60.29
2019-03-21T09:47:45.557Z,59.16
2019-03-21T09:49:20.795Z,59.02
2019-03-21T09:50:56.058Z,59.02
2019-03-21T09:52:31.339Z,58.35
2019-03-21T09:54:09.853Z,58.34
2019-03-21T09:55:43.552Z,59.55
2019-03-21T09:57:19.811Z,59.55
2019-03-21T09:58:55.017Z,58.13
2019-03-21T10:00:32.288Z,58.83
2019-03-21T10:02:07.497Z,57.96
2019-03-21T10:03:42.683Z,58.44
2019-03-21T10:05:17.909Z,56.84
2019-03-21T10:06:53.129Z,57.94
2019-03-21T10:08:28.381Z,59.26
2019-03-21T10:10:05.308Z,57.36
2019-03-21T10:11:40.602Z,56.87
2019-03-21T10:13:15.788Z,56.31
2019-03-21T10:14:50.993Z,54.86
2019-03-21T10:16:26.199Z,55.97
2019-03-21T10:18:01.463Z,57.38
2019-03-21T10:19:36.732Z,54.65
2019-03-21T10:21:11.997Z,52.92
2019-03-21T10:22:47.200Z,52.73
2019-03-21T10:24:23.365Z,51.19
2019-03-21T10:25:58.809Z,50.06
2019-03-21T10:27:34.005Z,52.03
2019-03-21T10:29:09.302Z,52.61
2019-03-21T10:30:44.592Z,53.44
2019-03-21T10:32:20.923Z,51.95
2019-03-21T10:33:56.122Z,52.11
2019-03-21T10:35:32.688Z,50.79
2019-03-21T10:37:08.104Z,49.95
2019-03-21T10:38:43.347Z,49.04
2019-03-21T10:40:18.551Z,49.44
2019-03-21T10:41:53.760Z,47.43
2019-03-21T10:43:28.942Z,49.24
2019-03-21T10:45:04.390Z,48.34
2019-03-21T10:46:39.671Z,48.26
2019-03-21T10:48:14.893Z,48.07
2019-03-21T10:49:51.137Z,49.00
2019-03-21T10:51:26.320Z,48.30
2019-03-21T10:53:01.662Z,47.30
2019-03-21T10:54:36.859Z,49.75
2019-03-21T10:56:12.051Z,49.30
2019-03-21T10:57:47.277Z,49.33
2019-03-21T10:59:22.522Z,48.87
2019-03-21T11:00:57.639Z,48.49
2019-03-21T11:02:32.830Z,48.66
2019-03-21T11:04:08.038Z,50.10
2019-03-21T11:05:43.236Z,50.02
2019-03-21T11:07:16.640Z,50.56
2019-03-21T11:08:51.826Z,50.62
2019-03-21T11:10:27.367Z,49.87
2019-03-21T11:12:02.552Z,49.06
2019-03-21T11:13:37.778Z,47.62
2019-03-21T11:15:13.114Z,48.92
2019-03-21T11:16:48.389Z,49.57
2019-03-21T11:18:23.585Z,49.65
2019-03-21T11:19:58.813Z,49.92
2019-03-21T11:21:34.024Z,48.78
2019-03-21T11:23:09.783Z,48.64
2019-03-21T11:24:45.025Z,49.87
2019-03-21T11:26:20.214Z,49.80
2019-03-21T11:27:55.484Z,48.09
2019-03-21T11:29:30.694Z,48.32
2019-03-21T11:31:06.040Z,50.72
2019-03-21T11:32:41.242Z,50.46
2019-03-21T11:34:16.444Z,52.96
2019-03-21T11:35:52.693Z,51.20
2019-03-21T11:37:27.887Z,51.86
2019-03-21T11:39:04.881Z,52.96
2019-03-21T11:40:40.335Z,51.17
2019-03-21T11:42:15.813Z,51.17
2019-03-21T11:43:51.034Z,53.50
2019-03-21T11:45:26.256Z,54.20
2019-03-21T11:47:01.447Z,52.95
2019-03-21T11:48:36.636Z,52.95
2019-03-21T11:50:12.005Z,52.78
2019-03-21T11:51:47.208Z,53.12
2019-03-21T11:53:22.390Z,52.74
2019-03-21T11:54:57.608Z,53.14
2019-03-21T11:56:32.846Z,52.23
2019-03-21T11:58:08.027Z,52.26
2019-03-21T11:59:51.490Z,52.49
2019-03-21T12:01:20.146Z,52.15
2019-03-21T12:02:55.351Z,52.95
2019-03-21T12:04:30.538Z,52.95
2019-03-21T12:06:05.813Z,54.05
2019-03-21T12:07:41.010Z,55.00
2019-03-21T12:09:17.248Z,54.12
2019-03-21T12:10:52.432Z,53.36
2019-03-21T12:12:27.668Z,53.96
2019-03-21T12:14:02.875Z,54.43
2019-03-21T12:15:38.089Z,54.47
2019-03-21T12:17:15.444Z,54.70
2019-03-21T12:18:52.252Z,54.92
2019-03-21T12:20:31.775Z,55.19
2019-03-21T12:22:06.990Z,55.40
2019-03-21T12:23:42.205Z,55.43
2019-03-21T12:25:17.924Z,54.89
2019-03-21T12:26:53.180Z,54.94
2019-03-21T12:28:28.420Z,54.81
2019-03-21T12:30:03.847Z,55.14
2019-03-21T12:31:39.339Z,54.75
2019-03-21T12:33:14.654Z,54.16
2019-03-21T12:34:49.856Z,54.61
2019-03-21T12:36:25.060Z,54.11
2019-03-21T12:38:01.452Z,54.17
2019-03-21T12:39:36.665Z,54.47
2019-03-21T12:41:11.864Z,54.73
2019-03-21T12:42:47.063Z,54.34
2019-03-21T12:44:22.249Z,54.34
2019-03-21T12:45:57.461Z,54.72
2019-03-21T12:47:32.708Z,54.20
2019-03-21T12:49:07.926Z,54.38
2019-03-21T12:50:43.203Z,54.67
2019-03-21T12:52:18.386Z,54.68
2019-03-21T12:53:53.596Z,54.26
2019-03-21T12:55:29.760Z,54.15
2019-03-21T12:57:05.150Z,54.40
2019-03-21T12:58:40.341Z,54.50
2019-03-21T13:00:15.808Z,54.50
2019-03-21T13:01:51.011Z,54.74
2019-03-21T13:03:26.191Z,54.46
2019-03-21T13:05:01.429Z,54.62
2019-03-21T13:06:36.641Z,55.21
2019-03-21T13:08:11.899Z,56.06
2019-03-21T13:09:47.109Z,55.32
2019-03-21T13:11:22.393Z,55.44
2019-03-21T13:12:57.714Z,55.14
2019-03-21T13:14:32.907Z,55.26
2019-03-21T13:16:08.114Z,55.43
2019-03-21T13:17:43.428Z,55.09
2019-03-21T13:19:18.641Z,54.54
2019-03-21T13:20:53.841Z,54.60
2019-03-21T13:22:29.031Z,54.99
2019-03-21T13:24:05.494Z,54.98
2019-03-21T13:25:40.713Z,55.13
2019-03-21T13:27:17.547Z,54.43
2019-03-21T13:28:52.736Z,54.24
2019-03-21T13:30:29.123Z,53.81
2019-03-21T13:32:04.394Z,55.12
2019-03-21T13:33:39.581Z,55.28
2019-03-21T13:35:15.147Z,55.28
2019-03-21T13:36:50.341Z,54.50
2019-03-21T13:38:25.540Z,54.57
2019-03-21T13:40:00.753Z,54.34
2019-03-21T13:41:36.183Z,55.15
2019-03-21T13:43:11.443Z,54.54
2019-03-21T13:44:47.671Z,54.42
2019-03-21T13:46:22.859Z,54.73
2019-03-21T13:47:58.051Z,54.85
2019-03-21T13:49:33.290Z,54.28
2019-03-21T13:51:08.515Z,54.28
2019-03-21T13:52:43.715Z,54.65
2019-03-21T13:54:18.929Z,55.47
2019-03-21T13:55:54.113Z,55.13
2019-03-21T13:57:29.326Z,55.13
2019-03-21T13:59:04.622Z,55.16
2019-03-21T14:00:41.104Z,54.96
2019-03-21T14:02:16.430Z,54.34
2019-03-21T14:03:51.642Z,54.48
2019-03-21T14:05:27.019Z,54.60
2019-03-21T14:07:02.196Z,54.42
2019-03-21T14:08:38.475Z,54.89
2019-03-21T14:10:13.809Z,54.62
2019-03-21T14:11:49.020Z,54.92
2019-03-21T14:13:24.282Z,55.49
2019-03-21T14:14:59.518Z,55.49
2019-03-21T14:16:34.698Z,55.36
2019-03-21T14:18:10.092Z,55.13
2019-03-21T14:19:45.314Z,55.33
2019-03-21T14:21:20.563Z,55.57
2019-03-21T14:22:55.823Z,55.74
2019-03-21T14:24:31.034Z,55.92
2019-03-21T14:26:06.386Z,55.57
2019-03-21T14:27:41.599Z,55.55
2019-03-21T14:29:16.855Z,55.55
2019-03-21T14:30:52.061Z,55.66
2019-03-21T14:32:27.266Z,55.55
2019-03-21T14:34:02.480Z,55.69
2019-03-21T14:35:37.690Z,55.69
2019-03-21T14:37:12.915Z,55.92
2019-03-21T14:38:48.118Z,56.41
2019-03-21T14:40:23.313Z,56.36
2019-03-21T14:41:58.605Z,56.36
2019-03-21T14:43:33.801Z,56.73
2019-03-21T14:45:09.542Z,56.73
2019-03-21T14:46:45.717Z,56.81
2019-03-21T14:48:20.955Z,56.42
2019-03-21T14:49:56.251Z,57.06
2019-03-21T14:51:31.439Z,57.06
2019-03-21T14:53:06.701Z,57.52
2019-03-21T14:54:41.905Z,57.52
2019-03-21T14:56:17.107Z,56.95
2019-03-21T14:57:52.403Z,57.03
2019-03-21T14:59:27.680Z,57.03
2019-03-21T15:01:02.878Z,57.15
2019-03-21T15:02:38.073Z,57.26
2019-03-21T15:04:13.284Z,57.26
2019-03-21T15:05:48.454Z,57.34
2019-03-21T15:07:23.663Z,57.49
2019-03-21T15:08:58.879Z,58.06
2019-03-21T15:10:34.074Z,57.65
2019-03-21T15:12:09.286Z,57.91
2019-03-21T15:13:44.485Z,57.83
2019-03-21T15:15:19.687Z,58.22
2019-03-21T15:16:54.879Z,58.22
2019-03-21T15:18:30.075Z,57.76
2019-03-21T15:20:06.786Z,58.13
2019-03-21T15:21:42.022Z,58.04
2019-03-21T15:23:17.233Z,57.83
2019-03-21T15:24:52.460Z,58.68
2019-03-21T15:26:27.697Z,58.68
2019-03-21T15:28:03.598Z,58.16
2019-03-21T15:29:38.795Z,58.43
2019-03-21T15:31:13.987Z,58.65
2019-03-21T15:32:49.572Z,58.65
2019-03-21T15:34:25.732Z,58.70
2019-03-21T15:36:00.932Z,58.72
2019-03-21T15:37:36.144Z,58.75
2019-03-21T15:39:11.371Z,58.69
2019-03-21T15:40:46.579Z,58.69
2019-03-21T15:42:22.765Z,58.83
2019-03-21T15:43:57.962Z,58.59
2019-03-21T15:45:33.219Z,58.59
2019-03-21T15:47:08.397Z,59.24
2019-03-21T15:48:43.620Z,58.75
2019-03-21T15:50:37.755Z,58.75
2019-03-21T15:52:12.219Z,59.18
2019-03-21T15:53:54.799Z,59.57
2019-03-21T15:55:24.448Z,59.57
2019-03-21T15:57:00.785Z,59.65
2019-03-21T15:58:36.007Z,59.48
2019-03-21T16:00:14.609Z,59.48
2019-03-21T16:01:50.122Z,59.65
2019-03-21T16:03:25.302Z,59.81
2019-03-21T16:05:00.578Z,60.01
2019-03-21T16:06:36.831Z,59.84
2019-03-21T16:08:12.242Z,59.84
2019-03-21T16:09:47.445Z,60.16
2019-03-21T16:11:22.649Z,60.32
2019-03-21T16:12:58.185Z,60.15
2019-03-21T16:14:33.543Z,60.32
2019-03-21T16:16:08.737Z,60.46
2019-03-21T16:17:43.947Z,60.44
2019-03-21T16:19:19.217Z,60.44
2019-03-21T16:20:54.414Z,61.06
2019-03-21T16:22:30.583Z,60.80
2019-03-21T16:24:06.010Z,60.63
2019-03-21T16:25:41.150Z,60.86
2019-03-21T16:27:16.371Z,61.06
2019-03-21T16:28:51.641Z,61.60
2019-03-21T16:30:27.026Z,61.60
2019-03-21T16:32:02.587Z,61.48
2019-03-21T16:33:38.826Z,61.48
2019-03-21T16:35:14.230Z,61.63
2019-03-21T16:36:49.440Z,61.53
2019-03-21T16:38:24.624Z,61.53
2019-03-21T16:39:59.866Z,61.78
2019-03-21T16:41:35.071Z,61.80
2019-03-21T16:43:10.324Z,61.80
2019-03-21T16:44:45.534Z,62.11
2019-03-21T16:46:20.731Z,62.19
2019-03-21T16:47:55.924Z,62.43
2019-03-21T16:49:31.146Z,62.93
2019-03-21T16:51:06.333Z,62.93
2019-03-21T16:52:41.604Z,63.05
2019-03-21T16:54:17.677Z,63.09
2019-03-21T16:55:53.003Z,62.90
2019-03-21T16:57:28.321Z,62.91
2019-03-21T16:59:03.526Z,63.36
2019-03-21T17:00:38.715Z,63.68
2019-03-21T17:02:13.928Z,63.68
2019-03-21T17:03:49.112Z,63.72
2019-03-21T17:05:24.409Z,63.77
2019-03-21T17:06:59.608Z,64.05
2019-03-21T17:08:34.828Z,63.67
2019-03-21T17:10:11.233Z,63.67
2019-03-21T17:11:46.424Z,64.28
2019-03-21T17:13:23.788Z,64.78
2019-03-21T17:14:58.651Z,65.08
2019-03-21T17:16:33.861Z,65.08
2019-03-21T17:18:09.171Z,65.93
2019-03-21T17:19:44.385Z,65.82
2019-03-21T17:21:19.518Z,66.93
2019-03-21T17:22:54.726Z,66.93
2019-03-21T17:24:30.018Z,66.98
2019-03-21T17:26:05.175Z,66.87
2019-03-21T17:27:41.436Z,66.94
2019-03-21T17:29:16.716Z,67.05
2019-03-21T17:30:51.865Z,67.77
2019-03-21T17:32:27.132Z,67.77
2019-03-21T17:34:04.118Z,67.66
2019-03-21T17:35:39.203Z,68.07
2019-03-21T17:37:14.395Z,68.09
2019-03-21T17:38:49.579Z,67.94
2019-03-21T17:40:24.801Z,67.91
2019-03-21T17:42:00.111Z,68.53
2019-03-21T17:43:35.362Z,68.53
2019-03-21T17:45:12.415Z,68.74
2019-03-21T17:46:47.638Z,68.77
2019-03-21T17:48:22.862Z,68.95
2019-03-21T17:49:58.082Z,69.35
2019-03-21T17:51:33.290Z,69.35
2019-03-21T17:53:08.476Z,69.83
2019-03-21T17:54:43.687Z,69.57
2019-03-21T17:56:18.941Z,69.41
2019-03-21T17:57:54.152Z,69.82
2019-03-21T17:59:29.372Z,70.17
2019-03-21T18:01:04.800Z,70.17
2019-03-21T18:02:41.233Z,70.33
2019-03-21T18:04:17.561Z,70.31
2019-03-21T18:05:52.820Z,70.27
2019-03-21T18:07:28.025Z,69.87
2019-03-21T18:09:04.310Z,70.29
2019-03-21T18:10:39.557Z,70.47
2019-03-21T18:12:15.086Z,70.71
2019-03-21T18:13:50.289Z,70.71
2019-03-21T18:15:25.573Z,71.22
2019-03-21T18:17:00.796Z,70.90
2019-03-21T18:18:36.000Z,70.78
2019-03-21T18:20:11.275Z,71.06
2019-03-21T18:21:46.495Z,71.77
2019-03-21T18:23:21.696Z,71.77
2019-03-21T18:24:56.909Z,71.94
2019-03-21T18:26:33.120Z,71.63
2019-03-21T18:28:08.926Z,72.00
2019-03-21T18:29:44.281Z,72.13
2019-03-21T18:31:19.487Z,72.03
2019-03-21T18:32:54.817Z,72.10
2019-03-21T18:34:30.005Z,72.06
2019-03-21T18:36:05.448Z,72.20
2019-03-21T18:37:40.633Z,72.78
2019-03-21T18:39:15.835Z,72.87
2019-03-21T18:40:51.021Z,72.98
2019-03-21T18:42:26.320Z,72.88
2019-03-21T18:44:01.551Z,72.99
2019-03-21T18:45:36.757Z,73.21
2019-03-21T18:47:11.949Z,73.23
2019-03-21T18:48:48.218Z,73.27
2019-03-21T18:50:23.753Z,73.49
2019-03-21T18:51:58.969Z,73.51
2019-03-21T18:53:34.218Z,73.42
2019-03-21T18:55:09.971Z,73.38
2019-03-21T18:56:45.160Z,73.34
2019-03-21T18:58:20.337Z,73.78
2019-03-21T18:59:55.541Z,74.30
2019-03-21T19:01:30.846Z,74.30
2019-03-21T19:03:07.113Z,74.58
2019-03-21T19:04:42.535Z,74.69
2019-03-21T19:06:17.724Z,75.12
2019-03-21T19:07:52.917Z,74.99
2019-03-21T19:09:28.095Z,74.86
2019-03-21T19:11:03.359Z,75.22
2019-03-21T19:12:38.594Z,74.90
2019-03-21T19:14:14.000Z,75.51
2019-03-21T19:15:49.214Z,75.61
2019-03-21T19:17:24.674Z,75.77
2019-03-21T19:18:59.864Z,75.34
2019-03-21T19:20:35.127Z,75.50
2019-03-21T19:22:10.306Z,75.78
2019-03-21T19:23:45.505Z,75.91
2019-03-21T19:25:20.760Z,76.06
2019-03-21T19:26:56.000Z,76.26
2019-03-21T19:28:31.223Z,76.50
2019-03-21T19:30:07.819Z,76.58
2019-03-21T19:31:44.074Z,76.89
2019-03-21T19:33:19.250Z,76.89
2019-03-21T19:34:54.456Z,77.29
2019-03-21T19:36:29.645Z,77.48
2019-03-21T19:38:04.911Z,77.27
2019-03-21T19:39:42.017Z,77.19
2019-03-21T19:41:17.235Z,77.34
2019-03-21T19:42:52.437Z,77.48
2019-03-21T19:44:27.632Z,77.56
2019-03-21T19:46:02.820Z,77.61
2019-03-21T19:47:38.165Z,78.04
2019-03-21T19:49:13.358Z,77.88
2019-03-21T19:50:48.557Z,77.95
2019-03-21T19:52:24.732Z,78.29
2019-03-21T19:53:59.915Z,78.14
2019-03-21T19:55:35.316Z,78.38
2019-03-21T19:57:10.726Z,78.36
2019-03-21T19:58:45.882Z,77.96
2019-03-21T20:00:21.332Z,78.47
2019-03-21T20:01:56.630Z,79.16
2019-03-21T20:03:31.873Z,79.08
2019-03-21T20:05:07.735Z,79.06
2019-03-21T20:06:42.916Z,78.71
2019-03-21T20:08:18.111Z,79.12
2019-03-21T20:09:53.304Z,79.15
2019-03-21T20:11:28.471Z,79.12
2019-03-21T20:13:03.681Z,79.16
2019-03-21T20:14:39.076Z,79.44
2019-03-21T20:16:14.396Z,79.42
2019-03-21T20:17:49.818Z,79.40
2019-03-21T20:19:26.087Z,79.95
2019-03-21T20:21:01.346Z,79.97
2019-03-21T20:22:36.689Z,79.91
2019-03-21T20:24:11.867Z,80.12
2019-03-21T20:25:47.124Z,80.12
2019-03-21T20:27:22.406Z,79.87
2019-03-21T20:28:57.680Z,79.78
2019-03-21T20:30:32.868Z,80.19
2019-03-21T20:32:19.909Z,80.28